sensor_id;sensor_type;location;lat;lon;timestamp;temperature;humidity
67901;DHT22;54700;51.796;10.956;2023-01-28T00:00:46;0.30;99.90
67901;DHT22;54700;51.796;10.956;2023-01-28T00:03:13;0.40;99.90
67901;DHT22;54700;51.796;10.956;2023-01-28T00:05:42;0.40;99.90
67901;DHT22;54700;51.796;10.956;2023-01-28T00:08:09;0.40;99.90
67901;DHT22;54700;51.796;10.956;2023-01-28T00:10:37;0.40;99.90
67901;DHT22;54700;51.796;10.956;2023-01-28T00:13:04;0.40;99.90
67901;DHT22;54700;51.796;10.956;2023-01-28T00:15:31;0.40;99.90
67901;DHT22;54700;51.796;10.956;2023-01-28T00:17:58;0.40;99.90
67901;DHT22;54700;51.796;10.956;2023-01-28T00:20:24;0.30;99.90
67901;DHT22;54700;51.796;10.956;2023-01-28T00:22:53;0.40;99.90
67901;DHT22;54700;51.796;10.956;2023-01-28T00:25:19;0.40;99.90
67901;DHT22;54700;51.796;10.956;2023-01-28T00:27:46;0.40;99.90
67901;DHT22;54700;51.796;10.956;2023-01-28T00:30:13;0.40;99.90
67901;DHT22;54700;51.796;10.956;2023-01-28T00:32:40;0.40;99.90
67901;DHT22;54700;51.796;10.956;2023-01-28T00:35:07;0.40;99.90
67901;DHT22;54700;51.796;10.956;2023-01-28T00:37:34;0.40;99.90
67901;DHT22;54700;51.796;10.956;2023-01-28T00:40:04;0.40;99.90
67901;DHT22;54700;51.796;10.956;2023-01-28T00:42:34;0.40;99.90
67901;DHT22;54700;51.796;10.956;2023-01-28T00:45:01;0.40;99.90
67901;DHT22;54700;51.796;10.956;2023-01-28T00:47:30;0.40;99.90
67901;DHT22;54700;51.796;10.956;2023-01-28T00:49:57;0.40;99.90
67901;DHT22;54700;51.796;10.956;2023-01-28T00:52:24;0.40;99.90
67901;DHT22;54700;51.796;10.956;2023-01-28T00:54:52;0.30;99.90
67901;DHT22;54700;51.796;10.956;2023-01-28T00:57:23;0.30;99.90
67901;DHT22;54700;51.796;10.956;2023-01-28T00:59:49;0.30;99.90
67901;DHT22;54700;51.796;10.956;2023-01-28T01:02:16;0.30;99.90
67901;DHT22;54700;51.796;10.956;2023-01-28T01:04:43;0.30;99.90
67901;DHT22;54700;51.796;10.956;2023-01-28T01:07:20;0.30;99.90
67901;DHT22;54700;51.796;10.956;2023-01-28T01:09:59;0.30;99.90
67901;DHT22;54700;51.796;10.956;2023-01-28T01:12:28;0.30;99.90
67901;DHT22;54700;51.796;10.956;2023-01-28T01:14:56;0.30;99.90
67901;DHT22;54700;51.796;10.956;2023-01-28T01:17:23;0.30;99.90
67901;DHT22;54700;51.796;10.956;2023-01-28T01:19:50;0.30;99.90
67901;DHT22;54700;51.796;10.956;2023-01-28T01:22:18;0.20;99.90
67901;DHT22;54700;51.796;10.956;2023-01-28T01:24:46;0.30;99.90
67901;DHT22;54700;51.796;10.956;2023-01-28T01:27:13;0.20;99.90
67901;DHT22;54700;51.796;10.956;2023-01-28T01:29:41;0.20;99.90
67901;DHT22;54700;51.796;10.956;2023-01-28T01:32:11;0.20;99.90
67901;DHT22;54700;51.796;10.956;2023-01-28T01:34:37;0.20;99.90
67901;DHT22;54700;51.796;10.956;2023-01-28T01:37:04;0.20;99.90
67901;DHT22;54700;51.796;10.956;2023-01-28T01:39:32;0.20;99.90
67901;DHT22;54700;51.796;10.956;2023-01-28T01:41:59;0.30;99.90
67901;DHT22;54700;51.796;10.956;2023-01-28T01:44:46;0.20;99.90
67901;DHT22;54700;51.796;10.956;2023-01-28T01:47:20;0.20;99.90
67901;DHT22;54700;51.796;10.956;2023-01-28T01:49:49;0.20;99.90
67901;DHT22;54700;51.796;10.956;2023-01-28T01:52:17;0.20;99.90
67901;DHT22;54700;51.796;10.956;2023-01-28T01:54:50;0.20;99.90
67901;DHT22;54700;51.796;10.956;2023-01-28T01:57:20;0.20;99.90
67901;DHT22;54700;51.796;10.956;2023-01-28T01:59:54;0.20;99.90
67901;DHT22;54700;51.796;10.956;2023-01-28T02:02:31;0.20;99.90
67901;DHT22;54700;51.796;10.956;2023-01-28T02:05:01;0.20;99.90
67901;DHT22;54700;51.796;10.956;2023-01-28T02:07:29;0.20;99.90
67901;DHT22;54700;51.796;10.956;2023-01-28T02:09:56;0.20;99.90
67901;DHT22;54700;51.796;10.956;2023-01-28T02:12:24;0.20;99.90
67901;DHT22;54700;51.796;10.956;2023-01-28T02:14:58;0.20;99.90
67901;DHT22;54700;51.796;10.956;2023-01-28T02:17:28;0.10;99.90
67901;DHT22;54700;51.796;10.956;2023-01-28T02:19:56;0.10;99.90
67901;DHT22;54700;51.796;10.956;2023-01-28T02:22:34;0.10;99.90
67901;DHT22;54700;51.796;10.956;2023-01-28T02:25:49;0.10;99.90
67901;DHT22;54700;51.796;10.956;2023-01-28T02:28:35;0.10;99.90
67901;DHT22;54700;51.796;10.956;2023-01-28T02:31:10;0.10;99.90
67901;DHT22;54700;51.796;10.956;2023-01-28T02:33:44;0.10;99.90
67901;DHT22;54700;51.796;10.956;2023-01-28T02:36:20;0.10;99.90
67901;DHT22;54700;51.796;10.956;2023-01-28T02:38:54;0.10;99.90
67901;DHT22;54700;51.796;10.956;2023-01-28T02:41:28;0.10;99.90
67901;DHT22;54700;51.796;10.956;2023-01-28T02:44:02;0.10;99.90
67901;DHT22;54700;51.796;10.956;2023-01-28T02:46:33;0.10;99.90
67901;DHT22;54700;51.796;10.956;2023-01-28T02:49:19;0.10;99.90
67901;DHT22;54700;51.796;10.956;2023-01-28T02:51:56;0.10;99.90
67901;DHT22;54700;51.796;10.956;2023-01-28T02:54:36;0.10;99.90
67901;DHT22;54700;51.796;10.956;2023-01-28T02:57:12;0.00;99.90
67901;DHT22;54700;51.796;10.956;2023-01-28T02:59:53;0.10;99.90
67901;DHT22;54700;51.796;10.956;2023-01-28T03:02:29;0.00;99.90
67901;DHT22;54700;51.796;10.956;2023-01-28T03:05:04;0.00;99.90
67901;DHT22;54700;51.796;10.956;2023-01-28T03:07:33;0.00;99.90
67901;DHT22;54700;51.796;10.956;2023-01-28T03:10:03;0.00;99.90
67901;DHT22;54700;51.796;10.956;2023-01-28T03:12:32;0.00;99.90
67901;DHT22;54700;51.796;10.956;2023-01-28T03:15:22;0.10;99.90
67901;DHT22;54700;51.796;10.956;2023-01-28T03:18:10;0.00;99.90
67901;DHT22;54700;51.796;10.956;2023-01-28T03:21:00;0.00;99.90
67901;DHT22;54700;51.796;10.956;2023-01-28T03:23:51;0.10;99.90
67901;DHT22;54700;51.796;10.956;2023-01-28T03:26:41;0.10;99.90
67901;DHT22;54700;51.796;10.956;2023-01-28T03:29:29;0.10;99.90
67901;DHT22;54700;51.796;10.956;2023-01-28T03:32:17;0.10;99.90
67901;DHT22;54700;51.796;10.956;2023-01-28T03:35:02;0.10;99.90
67901;DHT22;54700;51.796;10.956;2023-01-28T03:37:50;0.10;99.90
67901;DHT22;54700;51.796;10.956;2023-01-28T03:40:17;0.10;99.90
67901;DHT22;54700;51.796;10.956;2023-01-28T03:42:44;0.10;99.90
67901;DHT22;54700;51.796;10.956;2023-01-28T03:45:12;0.10;99.90
67901;DHT22;54700;51.796;10.956;2023-01-28T03:47:40;0.10;99.90
67901;DHT22;54700;51.796;10.956;2023-01-28T03:50:08;0.10;99.90
67901;DHT22;54700;51.796;10.956;2023-01-28T03:52:36;0.10;99.90
67901;DHT22;54700;51.796;10.956;2023-01-28T03:55:03;0.10;99.90
67901;DHT22;54700;51.796;10.956;2023-01-28T03:57:37;0.10;99.90
67901;DHT22;54700;51.796;10.956;2023-01-28T04:00:05;0.10;99.90
67901;DHT22;54700;51.796;10.956;2023-01-28T04:02:34;0.10;99.90
67901;DHT22;54700;51.796;10.956;2023-01-28T04:05:07;0.10;99.90
67901;DHT22;54700;51.796;10.956;2023-01-28T04:07:37;0.10;99.90
67901;DHT22;54700;51.796;10.956;2023-01-28T04:10:04;0.10;99.90
67901;DHT22;54700;51.796;10.956;2023-01-28T04:12:33;0.10;99.90
67901;DHT22;54700;51.796;10.956;2023-01-28T04:15:03;0.10;99.90
67901;DHT22;54700;51.796;10.956;2023-01-28T04:17:39;0.10;99.90
67901;DHT22;54700;51.796;10.956;2023-01-28T04:20:11;0.10;99.90
67901;DHT22;54700;51.796;10.956;2023-01-28T04:22:39;0.10;99.90
67901;DHT22;54700;51.796;10.956;2023-01-28T04:25:06;0.10;99.90
67901;DHT22;54700;51.796;10.956;2023-01-28T04:27:34;0.10;99.90
67901;DHT22;54700;51.796;10.956;2023-01-28T04:30:02;0.10;99.90
67901;DHT22;54700;51.796;10.956;2023-01-28T04:32:30;0.10;99.90
67901;DHT22;54700;51.796;10.956;2023-01-28T04:34:56;0.10;99.90
67901;DHT22;54700;51.796;10.956;2023-01-28T04:37:24;0.10;99.90
67901;DHT22;54700;51.796;10.956;2023-01-28T04:39:51;0.10;99.90
67901;DHT22;54700;51.796;10.956;2023-01-28T04:42:18;0.10;99.90
67901;DHT22;54700;51.796;10.956;2023-01-28T04:44:45;0.10;99.90
67901;DHT22;54700;51.796;10.956;2023-01-28T04:47:11;0.10;99.90
67901;DHT22;54700;51.796;10.956;2023-01-28T04:49:38;0.10;99.90
67901;DHT22;54700;51.796;10.956;2023-01-28T04:52:05;0.00;99.90
67901;DHT22;54700;51.796;10.956;2023-01-28T04:54:33;0.00;99.90
67901;DHT22;54700;51.796;10.956;2023-01-28T04:57:00;0.00;99.90
67901;DHT22;54700;51.796;10.956;2023-01-28T04:59:26;0.00;99.90
67901;DHT22;54700;51.796;10.956;2023-01-28T05:01:53;0.00;99.90
67901;DHT22;54700;51.796;10.956;2023-01-28T05:04:20;0.00;99.90
67901;DHT22;54700;51.796;10.956;2023-01-28T05:06:47;0.00;99.90
67901;DHT22;54700;51.796;10.956;2023-01-28T05:09:13;0.00;99.90
67901;DHT22;54700;51.796;10.956;2023-01-28T05:11:41;0.00;99.90
67901;DHT22;54700;51.796;10.956;2023-01-28T05:14:08;0.00;99.90
67901;DHT22;54700;51.796;10.956;2023-01-28T05:16:35;0.00;99.90
67901;DHT22;54700;51.796;10.956;2023-01-28T05:19:02;-0.10;99.90
67901;DHT22;54700;51.796;10.956;2023-01-28T05:21:29;0.00;99.90
67901;DHT22;54700;51.796;10.956;2023-01-28T05:23:55;0.00;99.90
67901;DHT22;54700;51.796;10.956;2023-01-28T05:26:22;0.00;99.90
67901;DHT22;54700;51.796;10.956;2023-01-28T05:28:50;0.00;99.90
67901;DHT22;54700;51.796;10.956;2023-01-28T05:31:17;0.00;99.90
67901;DHT22;54700;51.796;10.956;2023-01-28T05:33:44;0.00;99.90
67901;DHT22;54700;51.796;10.956;2023-01-28T05:36:11;0.00;99.90
67901;DHT22;54700;51.796;10.956;2023-01-28T05:38:37;-0.10;99.90
67901;DHT22;54700;51.796;10.956;2023-01-28T05:41:04;-0.10;99.90
67901;DHT22;54700;51.796;10.956;2023-01-28T05:43:30;-0.10;99.90
67901;DHT22;54700;51.796;10.956;2023-01-28T05:45:58;-0.10;99.90
67901;DHT22;54700;51.796;10.956;2023-01-28T05:48:25;-0.10;99.90
67901;DHT22;54700;51.796;10.956;2023-01-28T05:50:52;-0.10;99.90
67901;DHT22;54700;51.796;10.956;2023-01-28T05:53:19;-0.10;99.90
67901;DHT22;54700;51.796;10.956;2023-01-28T05:55:46;-0.20;96.30
67901;DHT22;54700;51.796;10.956;2023-01-28T05:58:14;-0.20;95.80
67901;DHT22;54700;51.796;10.956;2023-01-28T06:00:41;-0.20;93.70
67901;DHT22;54700;51.796;10.956;2023-01-28T06:03:09;-0.20;95.50
67901;DHT22;54700;51.796;10.956;2023-01-28T06:05:36;-0.10;98.10
67901;DHT22;54700;51.796;10.956;2023-01-28T06:08:02;-0.20;95.70
67901;DHT22;54700;51.796;10.956;2023-01-28T06:10:30;-0.20;96.10
67901;DHT22;54700;51.796;10.956;2023-01-28T06:12:56;-0.20;96.40
67901;DHT22;54700;51.796;10.956;2023-01-28T06:15:23;-0.20;95.00
67901;DHT22;54700;51.796;10.956;2023-01-28T06:17:50;-0.20;96.40
67901;DHT22;54700;51.796;10.956;2023-01-28T06:20:21;-0.30;96.20
67901;DHT22;54700;51.796;10.956;2023-01-28T06:22:49;-0.30;92.80
67901;DHT22;54700;51.796;10.956;2023-01-28T06:25:16;-0.30;91.40
67901;DHT22;54700;51.796;10.956;2023-01-28T06:27:42;-0.30;94.90
67901;DHT22;54700;51.796;10.956;2023-01-28T06:30:09;-0.40;92.40
67901;DHT22;54700;51.796;10.956;2023-01-28T06:32:37;-0.40;92.70
67901;DHT22;54700;51.796;10.956;2023-01-28T06:35:04;-0.40;93.10
67901;DHT22;54700;51.796;10.956;2023-01-28T06:37:32;-0.40;89.40
67901;DHT22;54700;51.796;10.956;2023-01-28T06:40:01;-0.40;90.00
67901;DHT22;54700;51.796;10.956;2023-01-28T06:42:28;-0.50;89.30
67901;DHT22;54700;51.796;10.956;2023-01-28T06:44:55;-0.50;87.10
67901;DHT22;54700;51.796;10.956;2023-01-28T06:47:22;-0.50;93.90
67901;DHT22;54700;51.796;10.956;2023-01-28T06:49:48;-0.50;93.50
67901;DHT22;54700;51.796;10.956;2023-01-28T06:52:15;-0.50;89.00
67901;DHT22;54700;51.796;10.956;2023-01-28T06:54:44;-0.50;88.20
67901;DHT22;54700;51.796;10.956;2023-01-28T06:57:11;-0.50;87.60
67901;DHT22;54700;51.796;10.956;2023-01-28T06:59:38;-0.50;90.30
67901;DHT22;54700;51.796;10.956;2023-01-28T07:02:04;-0.40;91.20
67901;DHT22;54700;51.796;10.956;2023-01-28T07:04:32;-0.40;89.40
67901;DHT22;54700;51.796;10.956;2023-01-28T07:06:58;-0.40;88.10
67901;DHT22;54700;51.796;10.956;2023-01-28T07:09:25;-0.50;91.90
67901;DHT22;54700;51.796;10.956;2023-01-28T07:11:53;-0.50;92.50
67901;DHT22;54700;51.796;10.956;2023-01-28T07:14:20;-0.50;91.90
67901;DHT22;54700;51.796;10.956;2023-01-28T07:16:47;-0.50;94.00
67901;DHT22;54700;51.796;10.956;2023-01-28T07:19:13;-0.50;93.20
67901;DHT22;54700;51.796;10.956;2023-01-28T07:21:40;-0.50;92.10
67901;DHT22;54700;51.796;10.956;2023-01-28T07:24:07;-0.50;89.70
67901;DHT22;54700;51.796;10.956;2023-01-28T07:26:36;-0.50;93.20
67901;DHT22;54700;51.796;10.956;2023-01-28T07:29:04;-0.50;93.40
67901;DHT22;54700;51.796;10.956;2023-01-28T07:31:30;-0.50;91.10
67901;DHT22;54700;51.796;10.956;2023-01-28T07:34:00;-0.40;94.80
67901;DHT22;54700;51.796;10.956;2023-01-28T07:36:26;-0.40;95.90
67901;DHT22;54700;51.796;10.956;2023-01-28T07:38:53;-0.40;92.90
67901;DHT22;54700;51.796;10.956;2023-01-28T07:41:20;-0.40;93.40
67901;DHT22;54700;51.796;10.956;2023-01-28T07:43:46;-0.30;91.30
67901;DHT22;54700;51.796;10.956;2023-01-28T07:46:14;-0.40;89.10
67901;DHT22;54700;51.796;10.956;2023-01-28T07:48:41;-0.40;90.60
67901;DHT22;54700;51.796;10.956;2023-01-28T07:51:08;-0.30;88.20
67901;DHT22;54700;51.796;10.956;2023-01-28T07:53:34;-0.40;92.30
67901;DHT22;54700;51.796;10.956;2023-01-28T07:56:03;-0.30;94.50
67901;DHT22;54700;51.796;10.956;2023-01-28T07:58:30;-0.30;94.60
67901;DHT22;54700;51.796;10.956;2023-01-28T08:00:58;-0.20;93.00
67901;DHT22;54700;51.796;10.956;2023-01-28T08:03:30;-0.20;92.40
67901;DHT22;54700;51.796;10.956;2023-01-28T08:05:56;-0.20;89.30
67901;DHT22;54700;51.796;10.956;2023-01-28T08:08:23;-0.20;88.10
67901;DHT22;54700;51.796;10.956;2023-01-28T08:10:52;-0.20;88.20
67901;DHT22;54700;51.796;10.956;2023-01-28T08:13:19;-0.20;87.50
67901;DHT22;54700;51.796;10.956;2023-01-28T08:15:46;-0.20;87.50
67901;DHT22;54700;51.796;10.956;2023-01-28T08:18:13;-0.20;89.20
67901;DHT22;54700;51.796;10.956;2023-01-28T08:20:43;-0.20;87.30
67901;DHT22;54700;51.796;10.956;2023-01-28T08:23:12;-0.20;87.80
67901;DHT22;54700;51.796;10.956;2023-01-28T08:25:40;-0.20;86.10
67901;DHT22;54700;51.796;10.956;2023-01-28T08:28:08;-0.20;90.70
67901;DHT22;54700;51.796;10.956;2023-01-28T08:30:35;-0.20;91.70
67901;DHT22;54700;51.796;10.956;2023-01-28T08:33:03;-0.20;92.40
67901;DHT22;54700;51.796;10.956;2023-01-28T08:35:31;-0.20;90.10
67901;DHT22;54700;51.796;10.956;2023-01-28T08:38:00;-0.10;89.00
67901;DHT22;54700;51.796;10.956;2023-01-28T08:40:29;-0.10;91.20
67901;DHT22;54700;51.796;10.956;2023-01-28T08:42:56;-0.10;91.20
67901;DHT22;54700;51.796;10.956;2023-01-28T08:45:23;-0.10;90.90
67901;DHT22;54700;51.796;10.956;2023-01-28T08:47:51;0.00;92.70
67901;DHT22;54700;51.796;10.956;2023-01-28T08:50:19;0.00;94.50
67901;DHT22;54700;51.796;10.956;2023-01-28T08:52:47;0.00;88.30
67901;DHT22;54700;51.796;10.956;2023-01-28T08:55:21;0.00;90.80
67901;DHT22;54700;51.796;10.956;2023-01-28T08:57:48;0.10;90.20
67901;DHT22;54700;51.796;10.956;2023-01-28T09:00:15;0.10;90.90
67901;DHT22;54700;51.796;10.956;2023-01-28T09:02:42;0.10;88.40
67901;DHT22;54700;51.796;10.956;2023-01-28T09:05:10;0.10;89.80
67901;DHT22;54700;51.796;10.956;2023-01-28T09:07:37;0.20;92.00
67901;DHT22;54700;51.796;10.956;2023-01-28T09:10:04;0.20;92.60
67901;DHT22;54700;51.796;10.956;2023-01-28T09:12:33;0.20;90.60
67901;DHT22;54700;51.796;10.956;2023-01-28T09:15:00;0.30;91.70
67901;DHT22;54700;51.796;10.956;2023-01-28T09:17:26;0.20;90.20
67901;DHT22;54700;51.796;10.956;2023-01-28T09:19:53;0.30;88.70
67901;DHT22;54700;51.796;10.956;2023-01-28T09:22:20;0.20;86.20
67901;DHT22;54700;51.796;10.956;2023-01-28T09:24:46;0.20;82.90
67901;DHT22;54700;51.796;10.956;2023-01-28T09:27:13;0.10;86.10
67901;DHT22;54700;51.796;10.956;2023-01-28T09:29:43;0.10;84.40
67901;DHT22;54700;51.796;10.956;2023-01-28T09:32:10;0.10;84.30
67901;DHT22;54700;51.796;10.956;2023-01-28T09:34:37;0.10;83.80
67901;DHT22;54700;51.796;10.956;2023-01-28T09:37:03;0.10;79.50
67901;DHT22;54700;51.796;10.956;2023-01-28T09:39:30;0.00;82.50
67901;DHT22;54700;51.796;10.956;2023-01-28T09:42:01;0.00;86.80
67901;DHT22;54700;51.796;10.956;2023-01-28T09:44:42;0.00;88.00
67901;DHT22;54700;51.796;10.956;2023-01-28T09:47:24;0.00;81.40
67901;DHT22;54700;51.796;10.956;2023-01-28T09:49:54;0.10;86.40
67901;DHT22;54700;51.796;10.956;2023-01-28T09:52:25;0.10;82.50
67901;DHT22;54700;51.796;10.956;2023-01-28T09:54:53;0.10;85.00
67901;DHT22;54700;51.796;10.956;2023-01-28T09:57:28;0.20;87.00
67901;DHT22;54700;51.796;10.956;2023-01-28T10:00:05;0.10;87.40
67901;DHT22;54700;51.796;10.956;2023-01-28T10:02:40;0.10;87.00
67901;DHT22;54700;51.796;10.956;2023-01-28T10:05:19;0.20;83.70
67901;DHT22;54700;51.796;10.956;2023-01-28T10:07:54;0.20;84.30
67901;DHT22;54700;51.796;10.956;2023-01-28T10:10:30;0.20;90.60
67901;DHT22;54700;51.796;10.956;2023-01-28T10:13:03;0.20;86.50
67901;DHT22;54700;51.796;10.956;2023-01-28T10:15:50;0.20;88.10
67901;DHT22;54700;51.796;10.956;2023-01-28T10:18:27;0.20;86.40
67901;DHT22;54700;51.796;10.956;2023-01-28T10:21:00;0.20;87.10
67901;DHT22;54700;51.796;10.956;2023-01-28T10:23:33;0.20;83.90
67901;DHT22;54700;51.796;10.956;2023-01-28T10:26:10;0.20;80.20
67901;DHT22;54700;51.796;10.956;2023-01-28T10:28:45;0.20;77.70
67901;DHT22;54700;51.796;10.956;2023-01-28T10:31:18;0.10;81.10
67901;DHT22;54700;51.796;10.956;2023-01-28T10:33:46;0.10;80.50
67901;DHT22;54700;51.796;10.956;2023-01-28T10:36:13;0.20;88.90
67901;DHT22;54700;51.796;10.956;2023-01-28T10:38:42;0.10;81.30
67901;DHT22;54700;51.796;10.956;2023-01-28T10:41:09;0.20;81.70
67901;DHT22;54700;51.796;10.956;2023-01-28T10:43:38;0.10;84.60
67901;DHT22;54700;51.796;10.956;2023-01-28T10:46:08;0.20;81.90
67901;DHT22;54700;51.796;10.956;2023-01-28T10:48:41;0.20;86.20
67901;DHT22;54700;51.796;10.956;2023-01-28T10:51:11;0.20;89.10
67901;DHT22;54700;51.796;10.956;2023-01-28T10:53:40;0.30;84.30
67901;DHT22;54700;51.796;10.956;2023-01-28T10:56:08;0.30;87.00
67901;DHT22;54700;51.796;10.956;2023-01-28T10:58:45;0.30;82.70
67901;DHT22;54700;51.796;10.956;2023-01-28T11:01:15;0.30;80.40
67901;DHT22;54700;51.796;10.956;2023-01-28T11:03:51;0.20;79.50
67901;DHT22;54700;51.796;10.956;2023-01-28T11:06:24;0.20;82.70
67901;DHT22;54700;51.796;10.956;2023-01-28T11:08:52;0.20;82.50
67901;DHT22;54700;51.796;10.956;2023-01-28T11:11:21;0.30;85.60
67901;DHT22;54700;51.796;10.956;2023-01-28T11:13:51;0.30;82.00
67901;DHT22;54700;51.796;10.956;2023-01-28T11:16:19;0.30;85.30
67901;DHT22;54700;51.796;10.956;2023-01-28T11:18:47;0.30;83.90
67901;DHT22;54700;51.796;10.956;2023-01-28T11:21:18;0.30;78.40
67901;DHT22;54700;51.796;10.956;2023-01-28T11:23:48;0.40;83.80
67901;DHT22;54700;51.796;10.956;2023-01-28T11:26:18;0.40;84.50
67901;DHT22;54700;51.796;10.956;2023-01-28T11:28:47;0.50;87.90
67901;DHT22;54700;51.796;10.956;2023-01-28T11:31:16;0.50;81.90
67901;DHT22;54700;51.796;10.956;2023-01-28T11:33:47;0.60;86.70
67901;DHT22;54700;51.796;10.956;2023-01-28T11:36:18;0.60;82.70
67901;DHT22;54700;51.796;10.956;2023-01-28T11:38:46;0.60;83.60
67901;DHT22;54700;51.796;10.956;2023-01-28T11:41:15;0.60;82.10
67901;DHT22;54700;51.796;10.956;2023-01-28T11:43:41;0.60;82.10
67901;DHT22;54700;51.796;10.956;2023-01-28T11:46:13;0.60;81.50
67901;DHT22;54700;51.796;10.956;2023-01-28T11:48:49;0.60;82.20
67901;DHT22;54700;51.796;10.956;2023-01-28T11:51:30;0.60;80.30
67901;DHT22;54700;51.796;10.956;2023-01-28T11:54:16;0.60;79.60
67901;DHT22;54700;51.796;10.956;2023-01-28T11:56:54;0.60;83.30
67901;DHT22;54700;51.796;10.956;2023-01-28T11:59:37;0.60;81.10
67901;DHT22;54700;51.796;10.956;2023-01-28T12:02:23;0.60;76.80
67901;DHT22;54700;51.796;10.956;2023-01-28T12:05:07;0.50;76.60
67901;DHT22;54700;51.796;10.956;2023-01-28T12:07:48;0.50;74.80
67901;DHT22;54700;51.796;10.956;2023-01-28T12:10:22;0.50;78.00
67901;DHT22;54700;51.796;10.956;2023-01-28T12:13:01;0.60;80.50
67901;DHT22;54700;51.796;10.956;2023-01-28T12:15:54;0.60;77.30
67901;DHT22;54700;51.796;10.956;2023-01-28T12:18:36;0.60;76.30
67901;DHT22;54700;51.796;10.956;2023-01-28T12:21:20;0.50;77.80
67901;DHT22;54700;51.796;10.956;2023-01-28T12:24:04;0.50;78.70
67901;DHT22;54700;51.796;10.956;2023-01-28T12:26:44;0.50;77.70
67901;DHT22;54700;51.796;10.956;2023-01-28T12:29:21;0.50;77.70
67901;DHT22;54700;51.796;10.956;2023-01-28T12:32:00;0.50;79.50
67901;DHT22;54700;51.796;10.956;2023-01-28T12:34:47;0.50;78.00
67901;DHT22;54700;51.796;10.956;2023-01-28T12:37:30;0.50;77.40
67901;DHT22;54700;51.796;10.956;2023-01-28T12:40:14;0.50;76.50
67901;DHT22;54700;51.796;10.956;2023-01-28T12:42:51;0.50;79.10
67901;DHT22;54700;51.796;10.956;2023-01-28T12:45:25;0.50;75.60
67901;DHT22;54700;51.796;10.956;2023-01-28T12:48:00;0.60;77.70
67901;DHT22;54700;51.796;10.956;2023-01-28T12:50:31;0.50;74.30
67901;DHT22;54700;51.796;10.956;2023-01-28T12:53:08;0.50;75.60
67901;DHT22;54700;51.796;10.956;2023-01-28T12:55:47;0.50;75.80
67901;DHT22;54700;51.796;10.956;2023-01-28T12:58:19;0.50;78.80
67901;DHT22;54700;51.796;10.956;2023-01-28T13:00:50;0.50;76.10
67901;DHT22;54700;51.796;10.956;2023-01-28T13:03:20;0.50;75.30
67901;DHT22;54700;51.796;10.956;2023-01-28T13:05:52;0.50;75.00
67901;DHT22;54700;51.796;10.956;2023-01-28T13:08:24;0.50;75.20
67901;DHT22;54700;51.796;10.956;2023-01-28T13:10:54;0.50;78.00
67901;DHT22;54700;51.796;10.956;2023-01-28T13:13:24;0.50;78.50
67901;DHT22;54700;51.796;10.956;2023-01-28T13:15:54;0.50;77.30
67901;DHT22;54700;51.796;10.956;2023-01-28T13:21:12;0.50;76.00
67901;DHT22;54700;51.796;10.956;2023-01-28T13:23:42;0.50;77.40
67901;DHT22;54700;51.796;10.956;2023-01-28T13:26:24;0.60;78.00
67901;DHT22;54700;51.796;10.956;2023-01-28T13:29:05;0.60;76.90
67901;DHT22;54700;51.796;10.956;2023-01-28T13:31:38;0.70;78.80
67901;DHT22;54700;51.796;10.956;2023-01-28T13:34:06;0.70;79.80
67901;DHT22;54700;51.796;10.956;2023-01-28T13:36:36;0.70;79.00
67901;DHT22;54700;51.796;10.956;2023-01-28T13:39:05;0.70;80.00
67901;DHT22;54700;51.796;10.956;2023-01-28T13:41:45;0.70;77.00
67901;DHT22;54700;51.796;10.956;2023-01-28T13:44:16;0.70;79.30
67901;DHT22;54700;51.796;10.956;2023-01-28T13:46:53;0.70;80.00
67901;DHT22;54700;51.796;10.956;2023-01-28T13:49:22;0.70;79.50
67901;DHT22;54700;51.796;10.956;2023-01-28T13:51:57;0.70;76.90
67901;DHT22;54700;51.796;10.956;2023-01-28T13:54:29;0.70;79.60
67901;DHT22;54700;51.796;10.956;2023-01-28T13:57:11;0.70;81.40
67901;DHT22;54700;51.796;10.956;2023-01-28T13:59:58;0.70;77.80
67901;DHT22;54700;51.796;10.956;2023-01-28T14:02:40;0.70;75.50
67901;DHT22;54700;51.796;10.956;2023-01-28T14:05:36;0.60;76.20
67901;DHT22;54700;51.796;10.956;2023-01-28T14:08:35;0.60;78.00
67901;DHT22;54700;51.796;10.956;2023-01-28T14:11:19;0.70;80.30
67901;DHT22;54700;51.796;10.956;2023-01-28T14:14:10;0.70;81.20
67901;DHT22;54700;51.796;10.956;2023-01-28T14:16:55;0.70;83.90
67901;DHT22;54700;51.796;10.956;2023-01-28T14:19:30;0.60;83.80
67901;DHT22;54700;51.796;10.956;2023-01-28T14:22:05;0.60;81.60
67901;DHT22;54700;51.796;10.956;2023-01-28T14:24:32;0.60;81.90
67901;DHT22;54700;51.796;10.956;2023-01-28T14:27:03;0.70;80.90
67901;DHT22;54700;51.796;10.956;2023-01-28T14:29:40;0.70;82.40
67901;DHT22;54700;51.796;10.956;2023-01-28T14:32:15;0.70;80.50
67901;DHT22;54700;51.796;10.956;2023-01-28T14:34:45;0.60;80.60
67901;DHT22;54700;51.796;10.956;2023-01-28T14:37:13;0.70;80.40
67901;DHT22;54700;51.796;10.956;2023-01-28T14:39:44;0.70;80.40
67901;DHT22;54700;51.796;10.956;2023-01-28T14:42:16;0.60;82.30
67901;DHT22;54700;51.796;10.956;2023-01-28T14:44:52;0.60;79.70
67901;DHT22;54700;51.796;10.956;2023-01-28T14:47:34;0.60;78.90
67901;DHT22;54700;51.796;10.956;2023-01-28T14:50:18;0.60;80.00
67901;DHT22;54700;51.796;10.956;2023-01-28T14:55:52;0.50;80.30
67901;DHT22;54700;51.796;10.956;2023-01-28T14:58:24;0.50;79.50
67901;DHT22;54700;51.796;10.956;2023-01-28T15:00:57;0.50;79.90
67901;DHT22;54700;51.796;10.956;2023-01-28T15:03:25;0.40;79.10
67901;DHT22;54700;51.796;10.956;2023-01-28T15:06:01;0.40;79.40
67901;DHT22;54700;51.796;10.956;2023-01-28T15:08:29;0.40;81.50
67901;DHT22;54700;51.796;10.956;2023-01-28T15:10:56;0.40;79.60
67901;DHT22;54700;51.796;10.956;2023-01-28T15:13:27;0.40;79.80
67901;DHT22;54700;51.796;10.956;2023-01-28T15:15:56;0.40;79.70
67901;DHT22;54700;51.796;10.956;2023-01-28T15:18:27;0.30;82.80
67901;DHT22;54700;51.796;10.956;2023-01-28T15:20:56;0.30;81.60
67901;DHT22;54700;51.796;10.956;2023-01-28T15:23:25;0.30;83.50
67901;DHT22;54700;51.796;10.956;2023-01-28T15:25:54;0.30;88.10
67901;DHT22;54700;51.796;10.956;2023-01-28T15:28:23;0.30;87.00
67901;DHT22;54700;51.796;10.956;2023-01-28T15:30:53;0.40;87.10
67901;DHT22;54700;51.796;10.956;2023-01-28T15:33:21;0.30;87.30
67901;DHT22;54700;51.796;10.956;2023-01-28T15:35:49;0.30;85.50
67901;DHT22;54700;51.796;10.956;2023-01-28T15:38:16;0.30;84.80
67901;DHT22;54700;51.796;10.956;2023-01-28T15:40:44;0.30;86.40
67901;DHT22;54700;51.796;10.956;2023-01-28T15:43:14;0.30;87.10
67901;DHT22;54700;51.796;10.956;2023-01-28T15:45:44;0.20;89.50
67901;DHT22;54700;51.796;10.956;2023-01-28T15:48:13;0.20;88.10
67901;DHT22;54700;51.796;10.956;2023-01-28T15:50:42;0.20;90.10
67901;DHT22;54700;51.796;10.956;2023-01-28T15:53:10;0.20;90.10
67901;DHT22;54700;51.796;10.956;2023-01-28T15:55:40;0.20;91.00
67901;DHT22;54700;51.796;10.956;2023-01-28T15:58:14;0.20;90.30